Santa Cruz, Brazil
Current Conditions -  °F | °C
As of 1:00 PM on Friday 24 Oct 2014 (Local Time) from SBNT Reporting Station
Scattered Clouds Scattered Clouds  
Wind Chill: 84°   Ceiling: Unl
Heat Index: 86°   Visibility: 6mi
Dew Point: 66°   Wind: 22mph
Humidity: 55%   Direction: 110°ESE
Pressure: 29.88"   Gusts: NA
Location:  6.23°S, 36.02°W
Report Text: SBNT 241600Z 11019KT 9999 SCT030 29/19 Q1012
Loading
Personal Weather Stations






























Interactive Weather Map
Tropical Storm Tracking
New forecast layout! Learn more

10-Day Weather Forecast

Advertisements
Track Severe Weather on mobile